sensor_id;sensor_type;location;lat;lon;timestamp;P1;durP1;ratioP1;P2;durP2;ratioP2
13321;SDS011;6730;46.248;6.930;2022-07-23T00:00:15;7.65;;;6.78;;
13321;SDS011;6730;46.248;6.930;2022-07-23T00:02:42;7.57;;;6.88;;
13321;SDS011;6730;46.248;6.930;2022-07-23T00:05:08;10.90;;;7.38;;
13321;SDS011;6730;46.248;6.930;2022-07-23T00:07:34;8.32;;;7.45;;
13321;SDS011;6730;46.248;6.930;2022-07-23T00:09:59;8.40;;;7.60;;
13321;SDS011;6730;46.248;6.930;2022-07-23T00:12:25;7.78;;;6.95;;
13321;SDS011;6730;46.248;6.930;2022-07-23T00:14:51;8.70;;;7.18;;
13321;SDS011;6730;46.248;6.930;2022-07-23T00:17:17;8.18;;;7.45;;
13321;SDS011;6730;46.248;6.930;2022-07-23T00:19:42;7.82;;;7.13;;
13321;SDS011;6730;46.248;6.930;2022-07-23T00:22:08;8.15;;;7.40;;
13321;SDS011;6730;46.248;6.930;2022-07-23T00:24:34;8.50;;;7.50;;
13321;SDS011;6730;46.248;6.930;2022-07-23T00:26:59;8.20;;;7.50;;
13321;SDS011;6730;46.248;6.930;2022-07-23T00:29:25;9.25;;;7.50;;
13321;SDS011;6730;46.248;6.930;2022-07-23T00:31:51;8.52;;;7.72;;
13321;SDS011;6730;46.248;6.930;2022-07-23T00:34:16;7.95;;;7.15;;
13321;SDS011;6730;46.248;6.930;2022-07-23T00:36:42;7.63;;;6.90;;
13321;SDS011;6730;46.248;6.930;2022-07-23T00:39:08;7.70;;;6.88;;
13321;SDS011;6730;46.248;6.930;2022-07-23T00:41:33;7.88;;;7.07;;
13321;SDS011;6730;46.248;6.930;2022-07-23T00:44:15;7.05;;;6.45;;
13321;SDS011;6730;46.248;6.930;2022-07-23T00:46:47;8.13;;;7.07;;
13321;SDS011;6730;46.248;6.930;2022-07-23T00:49:14;8.45;;;7.55;;
13321;SDS011;6730;46.248;6.930;2022-07-23T00:51:40;7.78;;;7.07;;
13321;SDS011;6730;46.248;6.930;2022-07-23T00:54:06;8.15;;;7.20;;
13321;SDS011;6730;46.248;6.930;2022-07-23T00:56:32;7.60;;;6.90;;
13321;SDS011;6730;46.248;6.930;2022-07-23T00:58:59;7.53;;;6.82;;
13321;SDS011;6730;46.248;6.930;2022-07-23T01:01:26;8.43;;;7.63;;
13321;SDS011;6730;46.248;6.930;2022-07-23T01:03:51;7.65;;;6.93;;
13321;SDS011;6730;46.248;6.930;2022-07-23T01:06:17;7.25;;;6.55;;
13321;SDS011;6730;46.248;6.930;2022-07-23T01:08:43;8.90;;;7.13;;
13321;SDS011;6730;46.248;6.930;2022-07-23T01:11:09;9.07;;;7.25;;
13321;SDS011;6730;46.248;6.930;2022-07-23T01:13:40;7.65;;;6.93;;
13321;SDS011;6730;46.248;6.930;2022-07-23T01:16:07;8.30;;;6.88;;
13321;SDS011;6730;46.248;6.930;2022-07-23T01:18:32;7.70;;;6.85;;
13321;SDS011;6730;46.248;6.930;2022-07-23T01:20:58;7.20;;;6.50;;
13321;SDS011;6730;46.248;6.930;2022-07-23T01:23:24;7.47;;;6.78;;
13321;SDS011;6730;46.248;6.930;2022-07-23T01:25:53;7.63;;;6.80;;
13321;SDS011;6730;46.248;6.930;2022-07-23T01:28:20;10.35;;;6.82;;
13321;SDS011;6730;46.248;6.930;2022-07-23T01:30:46;11.90;;;6.78;;
13321;SDS011;6730;46.248;6.930;2022-07-23T01:33:12;8.00;;;7.30;;
13321;SDS011;6730;46.248;6.930;2022-07-23T01:35:38;8.13;;;7.32;;
13321;SDS011;6730;46.248;6.930;2022-07-23T01:38:04;8.45;;;7.18;;
13321;SDS011;6730;46.248;6.930;2022-07-23T01:40:30;8.05;;;7.25;;
13321;SDS011;6730;46.248;6.930;2022-07-23T01:42:55;8.52;;;7.55;;
13321;SDS011;6730;46.248;6.930;2022-07-23T01:45:21;7.93;;;7.25;;
13321;SDS011;6730;46.248;6.930;2022-07-23T01:47:47;8.20;;;7.15;;
13321;SDS011;6730;46.248;6.930;2022-07-23T01:50:13;7.97;;;7.28;;
13321;SDS011;6730;46.248;6.930;2022-07-23T01:52:39;7.75;;;6.95;;
13321;SDS011;6730;46.248;6.930;2022-07-23T01:55:05;9.40;;;7.60;;
13321;SDS011;6730;46.248;6.930;2022-07-23T01:57:31;8.38;;;7.38;;
13321;SDS011;6730;46.248;6.930;2022-07-23T01:59:57;8.18;;;7.15;;
13321;SDS011;6730;46.248;6.930;2022-07-23T02:02:23;7.32;;;6.63;;
13321;SDS011;6730;46.248;6.930;2022-07-23T02:04:49;6.15;;;5.22;;
13321;SDS011;6730;46.248;6.930;2022-07-23T02:07:14;5.90;;;4.63;;
13321;SDS011;6730;46.248;6.930;2022-07-23T02:09:40;6.88;;;5.45;;
13321;SDS011;6730;46.248;6.930;2022-07-23T02:12:06;5.32;;;4.68;;
13321;SDS011;6730;46.248;6.930;2022-07-23T02:14:32;6.65;;;4.80;;
13321;SDS011;6730;46.248;6.930;2022-07-23T02:16:58;6.35;;;4.90;;
13321;SDS011;6730;46.248;6.930;2022-07-23T02:19:23;6.88;;;6.28;;
13321;SDS011;6730;46.248;6.930;2022-07-23T02:21:49;6.80;;;5.97;;
13321;SDS011;6730;46.248;6.930;2022-07-23T02:24:15;7.38;;;6.72;;
13321;SDS011;6730;46.248;6.930;2022-07-23T02:26:41;8.20;;;7.40;;
13321;SDS011;6730;46.248;6.930;2022-07-23T02:29:07;9.52;;;7.18;;
13321;SDS011;6730;46.248;6.930;2022-07-23T02:31:33;11.38;;;6.90;;
13321;SDS011;6730;46.248;6.930;2022-07-23T02:33:59;7.07;;;6.07;;
13321;SDS011;6730;46.248;6.930;2022-07-23T02:36:25;6.47;;;5.72;;
13321;SDS011;6730;46.248;6.930;2022-07-23T02:38:51;7.47;;;5.15;;
13321;SDS011;6730;46.248;6.930;2022-07-23T02:41:16;5.70;;;5.20;;
13321;SDS011;6730;46.248;6.930;2022-07-23T02:43:42;7.18;;;5.00;;
13321;SDS011;6730;46.248;6.930;2022-07-23T02:46:08;8.35;;;5.35;;
13321;SDS011;6730;46.248;6.930;2022-07-23T02:48:34;8.00;;;5.50;;
13321;SDS011;6730;46.248;6.930;2022-07-23T02:50:59;6.05;;;5.50;;
13321;SDS011;6730;46.248;6.930;2022-07-23T02:53:25;8.68;;;6.10;;
13321;SDS011;6730;46.248;6.930;2022-07-23T02:55:51;6.18;;;5.60;;
13321;SDS011;6730;46.248;6.930;2022-07-23T02:58:17;5.93;;;5.07;;
13321;SDS011;6730;46.248;6.930;2022-07-23T03:00:43;6.28;;;5.32;;
13321;SDS011;6730;46.248;6.930;2022-07-23T03:03:09;6.13;;;4.90;;
13321;SDS011;6730;46.248;6.930;2022-07-23T03:05:34;5.43;;;4.93;;
13321;SDS011;6730;46.248;6.930;2022-07-23T03:08:00;5.82;;;5.30;;
13321;SDS011;6730;46.248;6.930;2022-07-23T03:10:26;7.55;;;5.22;;
13321;SDS011;6730;46.248;6.930;2022-07-23T03:12:52;5.65;;;4.72;;
13321;SDS011;6730;46.248;6.930;2022-07-23T03:15:17;5.53;;;4.80;;
13321;SDS011;6730;46.248;6.930;2022-07-23T03:17:43;6.45;;;4.85;;
13321;SDS011;6730;46.248;6.930;2022-07-23T03:20:09;5.57;;;5.07;;
13321;SDS011;6730;46.248;6.930;2022-07-23T03:22:35;5.38;;;4.68;;
13321;SDS011;6730;46.248;6.930;2022-07-23T03:25:01;7.20;;;4.95;;
13321;SDS011;6730;46.248;6.930;2022-07-23T03:27:29;6.55;;;5.07;;
13321;SDS011;6730;46.248;6.930;2022-07-23T03:29:56;5.93;;;5.35;;
13321;SDS011;6730;46.248;6.930;2022-07-23T03:32:23;6.63;;;5.43;;
13321;SDS011;6730;46.248;6.930;2022-07-23T03:34:49;5.75;;;5.25;;
13321;SDS011;6730;46.248;6.930;2022-07-23T03:37:19;6.30;;;5.78;;
13321;SDS011;6730;46.248;6.930;2022-07-23T03:39:45;6.57;;;5.80;;
13321;SDS011;6730;46.248;6.930;2022-07-23T03:42:11;6.75;;;4.97;;
13321;SDS011;6730;46.248;6.930;2022-07-23T03:44:36;5.78;;;5.18;;
13321;SDS011;6730;46.248;6.930;2022-07-23T03:47:03;5.90;;;5.30;;
13321;SDS011;6730;46.248;6.930;2022-07-23T03:49:29;6.50;;;5.95;;
13321;SDS011;6730;46.248;6.930;2022-07-23T03:51:55;7.10;;;5.40;;
13321;SDS011;6730;46.248;6.930;2022-07-23T03:54:21;5.63;;;5.13;;
13321;SDS011;6730;46.248;6.930;2022-07-23T03:56:46;6.15;;;5.65;;
13321;SDS011;6730;46.248;6.930;2022-07-23T03:59:12;5.85;;;5.10;;
13321;SDS011;6730;46.248;6.930;2022-07-23T04:01:38;6.47;;;5.90;;
13321;SDS011;6730;46.248;6.930;2022-07-23T04:04:04;6.75;;;5.18;;
13321;SDS011;6730;46.248;6.930;2022-07-23T04:06:30;6.75;;;6.03;;
13321;SDS011;6730;46.248;6.930;2022-07-23T04:08:56;6.00;;;5.40;;
13321;SDS011;6730;46.248;6.930;2022-07-23T04:11:21;6.15;;;5.55;;
13321;SDS011;6730;46.248;6.930;2022-07-23T04:13:47;8.13;;;6.20;;
13321;SDS011;6730;46.248;6.930;2022-07-23T04:16:13;6.20;;;5.65;;
13321;SDS011;6730;46.248;6.930;2022-07-23T04:18:38;6.55;;;5.90;;
13321;SDS011;6730;46.248;6.930;2022-07-23T04:21:04;7.80;;;5.45;;
13321;SDS011;6730;46.248;6.930;2022-07-23T04:23:30;9.55;;;5.97;;
13321;SDS011;6730;46.248;6.930;2022-07-23T04:25:55;6.70;;;5.80;;
13321;SDS011;6730;46.248;6.930;2022-07-23T04:28:21;6.35;;;5.75;;
13321;SDS011;6730;46.248;6.930;2022-07-23T04:30:47;6.47;;;5.88;;
13321;SDS011;6730;46.248;6.930;2022-07-23T04:33:12;6.80;;;5.70;;
13321;SDS011;6730;46.248;6.930;2022-07-23T04:35:38;5.95;;;5.45;;
13321;SDS011;6730;46.248;6.930;2022-07-23T04:38:04;6.60;;;6.00;;
13321;SDS011;6730;46.248;6.930;2022-07-23T04:40:29;6.20;;;5.68;;
13321;SDS011;6730;46.248;6.930;2022-07-23T04:42:55;6.30;;;5.72;;
13321;SDS011;6730;46.248;6.930;2022-07-23T04:45:21;6.40;;;5.78;;
13321;SDS011;6730;46.248;6.930;2022-07-23T04:47:48;7.88;;;5.63;;
13321;SDS011;6730;46.248;6.930;2022-07-23T04:50:14;7.85;;;5.63;;
13321;SDS011;6730;46.248;6.930;2022-07-23T04:52:43;6.10;;;5.50;;
13321;SDS011;6730;46.248;6.930;2022-07-23T04:55:09;5.63;;;5.03;;
13321;SDS011;6730;46.248;6.930;2022-07-23T04:57:35;7.07;;;5.05;;
13321;SDS011;6730;46.248;6.930;2022-07-23T05:00:02;5.97;;;5.38;;
13321;SDS011;6730;46.248;6.930;2022-07-23T05:02:28;7.65;;;5.80;;
13321;SDS011;6730;46.248;6.930;2022-07-23T05:04:54;6.57;;;5.50;;
13321;SDS011;6730;46.248;6.930;2022-07-23T05:07:20;7.53;;;5.75;;
13321;SDS011;6730;46.248;6.930;2022-07-23T05:09:46;6.30;;;5.70;;
13321;SDS011;6730;46.248;6.930;2022-07-23T05:12:11;6.40;;;5.82;;
13321;SDS011;6730;46.248;6.930;2022-07-23T05:14:37;5.97;;;5.35;;
13321;SDS011;6730;46.248;6.930;2022-07-23T05:17:03;8.38;;;5.65;;
13321;SDS011;6730;46.248;6.930;2022-07-23T05:19:28;6.43;;;5.30;;
13321;SDS011;6730;46.248;6.930;2022-07-23T05:21:54;6.20;;;5.70;;
13321;SDS011;6730;46.248;6.930;2022-07-23T05:24:20;5.28;;;4.78;;
13321;SDS011;6730;46.248;6.930;2022-07-23T05:26:45;8.60;;;6.13;;
13321;SDS011;6730;46.248;6.930;2022-07-23T05:29:11;6.43;;;5.40;;
13321;SDS011;6730;46.248;6.930;2022-07-23T05:31:37;6.20;;;5.70;;
13321;SDS011;6730;46.248;6.930;2022-07-23T05:34:02;6.22;;;5.18;;
13321;SDS011;6730;46.248;6.930;2022-07-23T05:36:28;7.88;;;6.15;;
13321;SDS011;6730;46.248;6.930;2022-07-23T05:38:56;6.28;;;5.68;;
13321;SDS011;6730;46.248;6.930;2022-07-23T05:41:22;7.38;;;6.00;;
13321;SDS011;6730;46.248;6.930;2022-07-23T05:43:48;6.53;;;5.90;;
13321;SDS011;6730;46.248;6.930;2022-07-23T05:46:13;9.90;;;6.00;;
13321;SDS011;6730;46.248;6.930;2022-07-23T05:48:39;7.50;;;6.00;;
13321;SDS011;6730;46.248;6.930;2022-07-23T05:51:06;7.05;;;6.13;;
13321;SDS011;6730;46.248;6.930;2022-07-23T05:53:32;7.18;;;6.25;;
13321;SDS011;6730;46.248;6.930;2022-07-23T05:55:59;8.20;;;5.93;;
13321;SDS011;6730;46.248;6.930;2022-07-23T05:58:25;7.97;;;6.30;;
13321;SDS011;6730;46.248;6.930;2022-07-23T06:00:50;8.07;;;6.10;;
13321;SDS011;6730;46.248;6.930;2022-07-23T06:03:16;9.68;;;6.35;;
13321;SDS011;6730;46.248;6.930;2022-07-23T06:05:42;7.35;;;6.32;;
13321;SDS011;6730;46.248;6.930;2022-07-23T06:08:07;7.18;;;6.25;;
13321;SDS011;6730;46.248;6.930;2022-07-23T06:10:33;7.00;;;6.38;;
13321;SDS011;6730;46.248;6.930;2022-07-23T06:12:59;6.97;;;6.28;;
13321;SDS011;6730;46.248;6.930;2022-07-23T06:15:25;7.72;;;6.78;;
13321;SDS011;6730;46.248;6.930;2022-07-23T06:17:50;8.82;;;6.60;;
13321;SDS011;6730;46.248;6.930;2022-07-23T06:20:16;7.40;;;6.70;;
13321;SDS011;6730;46.248;6.930;2022-07-23T06:22:42;11.30;;;6.97;;
13321;SDS011;6730;46.248;6.930;2022-07-23T06:25:08;9.05;;;6.85;;
13321;SDS011;6730;46.248;6.930;2022-07-23T06:27:34;7.82;;;6.50;;
13321;SDS011;6730;46.248;6.930;2022-07-23T06:29:59;7.03;;;6.43;;
13321;SDS011;6730;46.248;6.930;2022-07-23T06:32:25;7.50;;;6.75;;
13321;SDS011;6730;46.248;6.930;2022-07-23T06:34:51;12.48;;;6.68;;
13321;SDS011;6730;46.248;6.930;2022-07-23T06:37:16;9.57;;;7.03;;
13321;SDS011;6730;46.248;6.930;2022-07-23T06:39:42;7.95;;;7.15;;
13321;SDS011;6730;46.248;6.930;2022-07-23T06:42:08;8.73;;;6.95;;
13321;SDS011;6730;46.248;6.930;2022-07-23T06:44:35;7.95;;;7.25;;
13321;SDS011;6730;46.248;6.930;2022-07-23T06:47:01;7.63;;;6.78;;
13321;SDS011;6730;46.248;6.930;2022-07-23T06:49:26;7.43;;;6.72;;
13321;SDS011;6730;46.248;6.930;2022-07-23T06:51:52;8.50;;;6.88;;
13321;SDS011;6730;46.248;6.930;2022-07-23T06:54:18;7.30;;;6.57;;
13321;SDS011;6730;46.248;6.930;2022-07-23T06:56:43;7.72;;;6.90;;
13321;SDS011;6730;46.248;6.930;2022-07-23T06:59:09;7.53;;;6.85;;
13321;SDS011;6730;46.248;6.930;2022-07-23T07:01:35;8.18;;;7.40;;
13321;SDS011;6730;46.248;6.930;2022-07-23T07:04:00;7.53;;;6.78;;
13321;SDS011;6730;46.248;6.930;2022-07-23T07:06:26;12.55;;;6.93;;
13321;SDS011;6730;46.248;6.930;2022-07-23T07:08:52;10.02;;;7.15;;
13321;SDS011;6730;46.248;6.930;2022-07-23T07:11:17;8.90;;;7.18;;
13321;SDS011;6730;46.248;6.930;2022-07-23T07:13:43;7.60;;;6.90;;
13321;SDS011;6730;46.248;6.930;2022-07-23T07:16:09;6.97;;;6.38;;
13321;SDS011;6730;46.248;6.930;2022-07-23T07:18:34;7.70;;;7.00;;
13321;SDS011;6730;46.248;6.930;2022-07-23T07:21:00;9.70;;;7.07;;
13321;SDS011;6730;46.248;6.930;2022-07-23T07:23:26;7.63;;;7.00;;
13321;SDS011;6730;46.248;6.930;2022-07-23T07:25:51;7.57;;;6.88;;
13321;SDS011;6730;46.248;6.930;2022-07-23T07:28:17;7.72;;;7.00;;
13321;SDS011;6730;46.248;6.930;2022-07-23T07:30:43;8.18;;;7.43;;
13321;SDS011;6730;46.248;6.930;2022-07-23T07:33:08;8.98;;;6.70;;
13321;SDS011;6730;46.248;6.930;2022-07-23T07:35:34;7.72;;;7.00;;
13321;SDS011;6730;46.248;6.930;2022-07-23T07:38:00;8.52;;;7.72;;
13321;SDS011;6730;46.248;6.930;2022-07-23T07:40:26;8.25;;;7.45;;
13321;SDS011;6730;46.248;6.930;2022-07-23T07:42:52;9.60;;;8.15;;
13321;SDS011;6730;46.248;6.930;2022-07-23T07:45:19;8.48;;;7.65;;
13321;SDS011;6730;46.248;6.930;2022-07-23T07:47:46;8.90;;;8.10;;
13321;SDS011;6730;46.248;6.930;2022-07-23T07:50:12;9.40;;;8.50;;
13321;SDS011;6730;46.248;6.930;2022-07-23T07:52:38;9.82;;;8.38;;
13321;SDS011;6730;46.248;6.930;2022-07-23T07:55:04;9.23;;;8.32;;
13321;SDS011;6730;46.248;6.930;2022-07-23T07:57:31;9.05;;;8.25;;
13321;SDS011;6730;46.248;6.930;2022-07-23T07:59:57;7.88;;;7.07;;
13321;SDS011;6730;46.248;6.930;2022-07-23T08:02:23;8.82;;;8.00;;
13321;SDS011;6730;46.248;6.930;2022-07-23T08:04:48;9.30;;;8.05;;
13321;SDS011;6730;46.248;6.930;2022-07-23T08:07:14;9.70;;;8.15;;
13321;SDS011;6730;46.248;6.930;2022-07-23T08:09:40;8.57;;;7.78;;
13321;SDS011;6730;46.248;6.930;2022-07-23T08:12:06;10.18;;;9.07;;
13321;SDS011;6730;46.248;6.930;2022-07-23T08:14:32;9.10;;;8.30;;
13321;SDS011;6730;46.248;6.930;2022-07-23T08:16:58;8.75;;;7.85;;
13321;SDS011;6730;46.248;6.930;2022-07-23T08:19:23;8.75;;;7.85;;
13321;SDS011;6730;46.248;6.930;2022-07-23T08:21:49;8.70;;;7.95;;
13321;SDS011;6730;46.248;6.930;2022-07-23T08:24:15;8.77;;;8.07;;
13321;SDS011;6730;46.248;6.930;2022-07-23T08:26:40;8.80;;;8.00;;
13321;SDS011;6730;46.248;6.930;2022-07-23T08:29:06;9.13;;;8.32;;
13321;SDS011;6730;46.248;6.930;2022-07-23T08:31:32;8.27;;;7.47;;
13321;SDS011;6730;46.248;6.930;2022-07-23T08:34:00;8.40;;;7.57;;
13321;SDS011;6730;46.248;6.930;2022-07-23T08:36:27;7.90;;;7.30;;
13321;SDS011;6730;46.248;6.930;2022-07-23T08:38:56;7.82;;;7.10;;
13321;SDS011;6730;46.248;6.930;2022-07-23T08:41:22;11.68;;;8.20;;
13321;SDS011;6730;46.248;6.930;2022-07-23T08:43:48;9.55;;;7.63;;
13321;SDS011;6730;46.248;6.930;2022-07-23T08:46:13;8.50;;;7.68;;
13321;SDS011;6730;46.248;6.930;2022-07-23T08:48:41;8.60;;;7.55;;
13321;SDS011;6730;46.248;6.930;2022-07-23T08:51:08;9.27;;;8.38;;
13321;SDS011;6730;46.248;6.930;2022-07-23T08:53:35;8.20;;;7.40;;
13321;SDS011;6730;46.248;6.930;2022-07-23T08:56:03;8.50;;;7.38;;
13321;SDS011;6730;46.248;6.930;2022-07-23T08:58:31;8.60;;;6.95;;
13321;SDS011;6730;46.248;6.930;2022-07-23T09:00:57;7.45;;;6.85;;
13321;SDS011;6730;46.248;6.930;2022-07-23T09:03:24;8.07;;;7.28;;
13321;SDS011;6730;46.248;6.930;2022-07-23T09:05:54;9.65;;;6.78;;
13321;SDS011;6730;46.248;6.930;2022-07-23T09:08:34;7.78;;;7.07;;
13321;SDS011;6730;46.248;6.930;2022-07-23T09:11:05;9.43;;;7.32;;
13321;SDS011;6730;46.248;6.930;2022-07-23T09:13:47;10.02;;;7.53;;
13321;SDS011;6730;46.248;6.930;2022-07-23T09:16:27;7.93;;;7.22;;
13321;SDS011;6730;46.248;6.930;2022-07-23T09:26:33;8.38;;;7.57;;
13321;SDS011;6730;46.248;6.930;2022-07-23T09:29:16;7.93;;;7.22;;
13321;SDS011;6730;46.248;6.930;2022-07-23T09:31:48;8.25;;;7.53;;
13321;SDS011;6730;46.248;6.930;2022-07-23T09:34:15;8.32;;;7.50;;
13321;SDS011;6730;46.248;6.930;2022-07-23T09:36:44;8.60;;;7.75;;
13321;SDS011;6730;46.248;6.930;2022-07-23T09:39:10;7.97;;;7.25;;
13321;SDS011;6730;46.248;6.930;2022-07-23T09:41:44;10.70;;;7.63;;
13321;SDS011;6730;46.248;6.930;2022-07-23T09:44:15;8.85;;;7.97;;
13321;SDS011;6730;46.248;6.930;2022-07-23T09:46:43;8.70;;;7.72;;
13321;SDS011;6730;46.248;6.930;2022-07-23T09:51:50;8.75;;;7.95;;
13321;SDS011;6730;46.248;6.930;2022-07-23T09:54:20;8.55;;;7.75;;
13321;SDS011;6730;46.248;6.930;2022-07-23T09:56:47;9.02;;;8.07;;
13321;SDS011;6730;46.248;6.930;2022-07-23T09:59:14;8.73;;;7.85;;
13321;SDS011;6730;46.248;6.930;2022-07-23T10:01:43;9.32;;;8.43;;
13321;SDS011;6730;46.248;6.930;2022-07-23T10:04:10;9.10;;;8.30;;
13321;SDS011;6730;46.248;6.930;2022-07-23T10:06:36;12.20;;;9.35;;
13321;SDS011;6730;46.248;6.930;2022-07-23T10:09:05;8.60;;;7.80;;
13321;SDS011;6730;46.248;6.930;2022-07-23T10:11:33;9.07;;;8.15;;
13321;SDS011;6730;46.248;6.930;2022-07-23T10:14:00;9.02;;;7.97;;
13321;SDS011;6730;46.248;6.930;2022-07-23T10:16:29;8.82;;;7.97;;
13321;SDS011;6730;46.248;6.930;2022-07-23T10:18:55;8.77;;;7.95;;
13321;SDS011;6730;46.248;6.930;2022-07-23T10:21:25;11.00;;;9.10;;
13321;SDS011;6730;46.248;6.930;2022-07-23T10:37:56;10.07;;;9.07;;
13321;SDS011;6730;46.248;6.930;2022-07-23T10:40:36;9.50;;;8.45;;
13321;SDS011;6730;46.248;6.930;2022-07-23T10:43:01;9.63;;;8.65;;
13321;SDS011;6730;46.248;6.930;2022-07-23T10:45:39;8.43;;;7.63;;
13321;SDS011;6730;46.248;6.930;2022-07-23T10:50:41;8.88;;;8.02;;
13321;SDS011;6730;46.248;6.930;2022-07-23T10:53:14;9.15;;;8.20;;
13321;SDS011;6730;46.248;6.930;2022-07-23T10:55:43;9.18;;;8.32;;
13321;SDS011;6730;46.248;6.930;2022-07-23T10:58:10;9.23;;;8.35;;
13321;SDS011;6730;46.248;6.930;2022-07-23T11:00:41;9.93;;;8.68;;
13321;SDS011;6730;46.248;6.930;2022-07-23T11:05:55;9.88;;;8.30;;
13321;SDS011;6730;46.248;6.930;2022-07-23T11:08:21;9.27;;;8.48;;
13321;SDS011;6730;46.248;6.930;2022-07-23T11:10:54;10.50;;;9.43;;
13321;SDS011;6730;46.248;6.930;2022-07-23T11:13:29;10.93;;;8.52;;
13321;SDS011;6730;46.248;6.930;2022-07-23T11:37:06;9.00;;;8.20;;
13321;SDS011;6730;46.248;6.930;2022-07-23T11:39:33;9.90;;;8.90;;
13321;SDS011;6730;46.248;6.930;2022-07-23T11:41:59;9.23;;;8.20;;
13321;SDS011;6730;46.248;6.930;2022-07-23T11:44:32;10.18;;;8.73;;
13321;SDS011;6730;46.248;6.930;2022-07-23T11:46:59;12.73;;;9.00;;
13321;SDS011;6730;46.248;6.930;2022-07-23T11:49:29;9.85;;;8.90;;
13321;SDS011;6730;46.248;6.930;2022-07-23T11:54:35;10.13;;;9.13;;
13321;SDS011;6730;46.248;6.930;2022-07-23T11:57:11;9.52;;;8.23;;
13321;SDS011;6730;46.248;6.930;2022-07-23T11:59:37;9.98;;;8.95;;
13321;SDS011;6730;46.248;6.930;2022-07-23T12:02:05;9.93;;;9.02;;
13321;SDS011;6730;46.248;6.930;2022-07-23T12:09:51;10.20;;;9.20;;
13321;SDS011;6730;46.248;6.930;2022-07-23T12:12:18;9.18;;;8.38;;
13321;SDS011;6730;46.248;6.930;2022-07-23T12:14:51;9.38;;;8.48;;
13321;SDS011;6730;46.248;6.930;2022-07-23T12:17:18;9.63;;;8.48;;
13321;SDS011;6730;46.248;6.930;2022-07-23T12:19:45;9.30;;;8.40;;
13321;SDS011;6730;46.248;6.930;2022-07-23T12:22:14;10.98;;;8.63;;
13321;SDS011;6730;46.248;6.930;2022-07-23T12:24:59;9.52;;;8.70;;
13321;SDS011;6730;46.248;6.930;2022-07-23T12:27:26;10.05;;;8.50;;
13321;SDS011;6730;46.248;6.930;2022-07-23T12:29:52;10.40;;;9.13;;
13321;SDS011;6730;46.248;6.930;2022-07-23T12:32:19;10.10;;;9.23;;
13321;SDS011;6730;46.248;6.930;2022-07-23T12:34:50;10.35;;;9.32;;
13321;SDS011;6730;46.248;6.930;2022-07-23T12:37:27;11.18;;;10.20;;
13321;SDS011;6730;46.248;6.930;2022-07-23T12:42:46;10.75;;;9.63;;
13321;SDS011;6730;46.248;6.930;2022-07-23T12:45:13;10.55;;;8.95;;
13321;SDS011;6730;46.248;6.930;2022-07-23T12:53:02;10.32;;;9.43;;
13321;SDS011;6730;46.248;6.930;2022-07-23T12:55:29;11.55;;;8.73;;
13321;SDS011;6730;46.248;6.930;2022-07-23T12:58:02;9.90;;;9.00;;
13321;SDS011;6730;46.248;6.930;2022-07-23T13:00:30;9.82;;;8.60;;
13321;SDS011;6730;46.248;6.930;2022-07-23T13:02:56;11.38;;;9.15;;
13321;SDS011;6730;46.248;6.930;2022-07-23T13:05:22;11.27;;;10.10;;
13321;SDS011;6730;46.248;6.930;2022-07-23T13:07:47;10.68;;;9.65;;
13321;SDS011;6730;46.248;6.930;2022-07-23T13:10:13;10.30;;;9.40;;
13321;SDS011;6730;46.248;6.930;2022-07-23T13:12:39;11.57;;;10.43;;
13321;SDS011;6730;46.248;6.930;2022-07-23T13:15:04;11.63;;;10.52;;
13321;SDS011;6730;46.248;6.930;2022-07-23T13:17:31;10.75;;;9.65;;
13321;SDS011;6730;46.248;6.930;2022-07-23T13:19:57;10.13;;;9.25;;
13321;SDS011;6730;46.248;6.930;2022-07-23T13:22:22;11.68;;;10.68;;
13321;SDS011;6730;46.248;6.930;2022-07-23T13:24:48;10.23;;;9.32;;
13321;SDS011;6730;46.248;6.930;2022-07-23T13:27:15;10.73;;;9.68;;
13321;SDS011;6730;46.248;6.930;2022-07-23T13:29:40;11.27;;;10.25;;
13321;SDS011;6730;46.248;6.930;2022-07-23T13:32:06;10.65;;;9.68;;
13321;SDS011;6730;46.248;6.930;2022-07-23T13:34:32;10.80;;;9.80;;
13321;SDS011;6730;46.248;6.930;2022-07-23T13:36:57;10.63;;;9.63;;
13321;SDS011;6730;46.248;6.930;2022-07-23T13:39:23;11.77;;;10.40;;
13321;SDS011;6730;46.248;6.930;2022-07-23T13:41:49;10.98;;;9.90;;
13321;SDS011;6730;46.248;6.930;2022-07-23T13:44:15;10.32;;;9.23;;
13321;SDS011;6730;46.248;6.930;2022-07-23T13:46:40;10.70;;;9.63;;
13321;SDS011;6730;46.248;6.930;2022-07-23T13:49:06;10.98;;;9.88;;
13321;SDS011;6730;46.248;6.930;2022-07-23T13:51:31;10.25;;;9.25;;
13321;SDS011;6730;46.248;6.930;2022-07-23T13:53:57;11.40;;;10.30;;
13321;SDS011;6730;46.248;6.930;2022-07-23T13:56:24;10.95;;;9.88;;
13321;SDS011;6730;46.248;6.930;2022-07-23T13:58:50;10.65;;;9.75;;
13321;SDS011;6730;46.248;6.930;2022-07-23T14:01:15;10.68;;;9.68;;
13321;SDS011;6730;46.248;6.930;2022-07-23T14:03:41;10.98;;;9.93;;
13321;SDS011;6730;46.248;6.930;2022-07-23T14:06:07;10.63;;;9.43;;
13321;SDS011;6730;46.248;6.930;2022-07-23T14:08:32;11.13;;;10.10;;
13321;SDS011;6730;46.248;6.930;2022-07-23T14:10:58;10.90;;;9.90;;
13321;SDS011;6730;46.248;6.930;2022-07-23T14:13:24;10.85;;;9.85;;
13321;SDS011;6730;46.248;6.930;2022-07-23T14:15:49;10.93;;;9.93;;
13321;SDS011;6730;46.248;6.930;2022-07-23T14:18:15;11.43;;;10.43;;
13321;SDS011;6730;46.248;6.930;2022-07-23T14:20:41;10.85;;;9.85;;
13321;SDS011;6730;46.248;6.930;2022-07-23T14:23:07;10.90;;;9.90;;
13321;SDS011;6730;46.248;6.930;2022-07-23T14:25:33;11.07;;;10.00;;
13321;SDS011;6730;46.248;6.930;2022-07-23T14:27:58;11.00;;;9.90;;
13321;SDS011;6730;46.248;6.930;2022-07-23T14:30:24;11.73;;;10.35;;
13321;SDS011;6730;46.248;6.930;2022-07-23T14:32:50;13.35;;;9.82;;
13321;SDS011;6730;46.248;6.930;2022-07-23T14:35:16;11.27;;;9.43;;
13321;SDS011;6730;46.248;6.930;2022-07-23T14:37:43;11.43;;;10.32;;
13321;SDS011;6730;46.248;6.930;2022-07-23T14:40:09;10.05;;;9.10;;
13321;SDS011;6730;46.248;6.930;2022-07-23T14:42:35;10.18;;;9.18;;
13321;SDS011;6730;46.248;6.930;2022-07-23T14:45:00;11.07;;;10.07;;
13321;SDS011;6730;46.248;6.930;2022-07-23T14:47:26;10.52;;;9.20;;
13321;SDS011;6730;46.248;6.930;2022-07-23T14:49:52;9.88;;;8.98;;
13321;SDS011;6730;46.248;6.930;2022-07-23T14:52:18;10.82;;;9.90;;
13321;SDS011;6730;46.248;6.930;2022-07-23T14:54:43;10.93;;;9.80;;
13321;SDS011;6730;46.248;6.930;2022-07-23T14:57:09;10.55;;;9.48;;
13321;SDS011;6730;46.248;6.930;2022-07-23T14:59:35;11.02;;;9.93;;
13321;SDS011;6730;46.248;6.930;2022-07-23T15:02:00;10.40;;;9.30;;
13321;SDS011;6730;46.248;6.930;2022-07-23T15:04:26;11.18;;;9.98;;
13321;SDS011;6730;46.248;6.930;2022-07-23T15:06:52;10.40;;;9.60;;
13321;SDS011;6730;46.248;6.930;2022-07-23T15:09:18;10.32;;;9.32;;
13321;SDS011;6730;46.248;6.930;2022-07-23T15:11:44;10.90;;;9.90;;
13321;SDS011;6730;46.248;6.930;2022-07-23T15:14:09;9.75;;;8.75;;
13321;SDS011;6730;46.248;6.930;2022-07-23T15:16:35;10.57;;;9.73;;
13321;SDS011;6730;46.248;6.930;2022-07-23T15:19:02;9.93;;;9.02;;
13321;SDS011;6730;46.248;6.930;2022-07-23T15:21:28;10.13;;;9.32;;
13321;SDS011;6730;46.248;6.930;2022-07-23T15:23:55;10.73;;;9.75;;
13321;SDS011;6730;46.248;6.930;2022-07-23T15:26:24;9.77;;;8.98;;
13321;SDS011;6730;46.248;6.930;2022-07-23T15:28:50;10.50;;;9.52;;
13321;SDS011;6730;46.248;6.930;2022-07-23T15:31:16;11.30;;;10.20;;
13321;SDS011;6730;46.248;6.930;2022-07-23T15:33:42;10.18;;;9.30;;
13321;SDS011;6730;46.248;6.930;2022-07-23T15:36:07;10.02;;;9.02;;
13321;SDS011;6730;46.248;6.930;2022-07-23T15:38:34;9.43;;;8.70;;
13321;SDS011;6730;46.248;6.930;2022-07-23T15:41:00;10.18;;;9.25;;
13321;SDS011;6730;46.248;6.930;2022-07-23T15:43:26;10.00;;;9.00;;
13321;SDS011;6730;46.248;6.930;2022-07-23T15:45:52;9.57;;;8.77;;
13321;SDS011;6730;46.248;6.930;2022-07-23T15:48:18;10.27;;;9.27;;
13321;SDS011;6730;46.248;6.930;2022-07-23T15:50:45;10.23;;;9.23;;
13321;SDS011;6730;46.248;6.930;2022-07-23T15:53:11;9.88;;;8.93;;
13321;SDS011;6730;46.248;6.930;2022-07-23T15:55:38;10.10;;;9.23;;
13321;SDS011;6730;46.248;6.930;2022-07-23T15:58:04;10.65;;;9.50;;
13321;SDS011;6730;46.248;6.930;2022-07-23T16:00:30;10.75;;;9.70;;